sensor_id;sensor_type;location;lat;lon;timestamp;pressure;altitude;pressure_sealevel;temperature;humidity
71126;BME280;58785;55.566;38.058;2023-03-12T00:02:00;98080.88;;;3.07;81.97
71126;BME280;58785;55.566;38.058;2023-03-12T00:04:26;98079.22;;;3.06;81.98
71126;BME280;58785;55.566;38.058;2023-03-12T00:06:51;98086.53;;;3.12;82.03
71126;BME280;58785;55.566;38.058;2023-03-12T00:09:17;98087.06;;;3.15;81.99
71126;BME280;58785;55.566;38.058;2023-03-12T00:11:42;98084.25;;;3.17;81.59
71126;BME280;58785;55.566;38.058;2023-03-12T00:14:08;98075.38;;;3.18;81.74
71126;BME280;58785;55.566;38.058;2023-03-12T00:16:34;98069.84;;;3.21;81.58
71126;BME280;58785;55.566;38.058;2023-03-12T00:18:59;98065.41;;;3.22;81.86
71126;BME280;58785;55.566;38.058;2023-03-12T00:21:25;98061.63;;;3.24;81.79
71126;BME280;58785;55.566;38.058;2023-03-12T00:23:51;98055.38;;;3.25;82.03
71126;BME280;58785;55.566;38.058;2023-03-12T00:26:19;98048.16;;;3.27;82.24
71126;BME280;58785;55.566;38.058;2023-03-12T00:28:47;98025.06;;;3.21;81.98
71126;BME280;58785;55.566;38.058;2023-03-12T00:31:21;98032.56;;;3.34;81.89
71126;BME280;58785;55.566;38.058;2023-03-12T00:33:47;98018.72;;;3.32;81.68
71126;BME280;58785;55.566;38.058;2023-03-12T00:36:15;98014.13;;;3.34;82.19
71126;BME280;58785;55.566;38.058;2023-03-12T00:38:41;98012.84;;;3.38;81.65
71126;BME280;58785;55.566;38.058;2023-03-12T00:41:07;98013.22;;;3.43;81.68
71126;BME280;58785;55.566;38.058;2023-03-12T00:43:32;98005.97;;;3.45;81.42
71126;BME280;58785;55.566;38.058;2023-03-12T00:45:58;98002.50;;;3.44;82.00
71126;BME280;58785;55.566;38.058;2023-03-12T00:48:24;97991.81;;;3.46;81.74
71126;BME280;58785;55.566;38.058;2023-03-12T00:50:49;97972.56;;;3.45;82.08
71126;BME280;58785;55.566;38.058;2023-03-12T00:53:15;97980.81;;;3.51;81.76
71126;BME280;58785;55.566;38.058;2023-03-12T00:55:41;97982.31;;;3.53;82.20
71126;BME280;58785;55.566;38.058;2023-03-12T00:58:07;97955.44;;;3.50;82.12
71126;BME280;58785;55.566;38.058;2023-03-12T01:00:32;97964.38;;;3.57;82.02
71126;BME280;58785;55.566;38.058;2023-03-12T01:02:58;97958.94;;;3.58;82.10
71126;BME280;58785;55.566;38.058;2023-03-12T01:05:24;97951.88;;;3.59;82.02
71126;BME280;58785;55.566;38.058;2023-03-12T01:07:49;97948.94;;;3.62;82.01
71126;BME280;58785;55.566;38.058;2023-03-12T01:10:17;97945.47;;;3.61;82.43
71126;BME280;58785;55.566;38.058;2023-03-12T01:12:44;97942.03;;;3.61;82.31
71126;BME280;58785;55.566;38.058;2023-03-12T01:15:13;97925.69;;;3.57;82.48
71126;BME280;58785;55.566;38.058;2023-03-12T01:17:39;97920.25;;;3.59;82.73
71126;BME280;58785;55.566;38.058;2023-03-12T01:20:06;97920.63;;;3.64;82.55
71126;BME280;58785;55.566;38.058;2023-03-12T01:22:33;97919.63;;;3.65;82.58
71126;BME280;58785;55.566;38.058;2023-03-12T01:24:59;97917.31;;;3.62;82.79
71126;BME280;58785;55.566;38.058;2023-03-12T01:27:25;97918.81;;;3.64;83.09
71126;BME280;58785;55.566;38.058;2023-03-12T01:29:50;97890.44;;;3.58;82.86
71126;BME280;58785;55.566;38.058;2023-03-12T01:32:16;97909.41;;;3.62;82.56
71126;BME280;58785;55.566;38.058;2023-03-12T01:34:43;97902.84;;;3.66;82.79
71126;BME280;58785;55.566;38.058;2023-03-12T01:37:08;97903.50;;;3.68;82.77
71126;BME280;58785;55.566;38.058;2023-03-12T01:39:34;97896.13;;;3.71;82.91
71126;BME280;58785;55.566;38.058;2023-03-12T01:42:00;97897.44;;;3.75;82.79
71126;BME280;58785;55.566;38.058;2023-03-12T01:44:27;97903.22;;;3.79;82.62
71126;BME280;58785;55.566;38.058;2023-03-12T01:46:53;97885.28;;;3.83;82.74
71126;BME280;58785;55.566;38.058;2023-03-12T01:49:22;97883.31;;;3.85;82.75
71126;BME280;58785;55.566;38.058;2023-03-12T01:54:47;97869.78;;;3.88;82.58
71126;BME280;58785;55.566;38.058;2023-03-12T01:57:18;97867.00;;;3.89;82.68
71126;BME280;58785;55.566;38.058;2023-03-12T01:59:52;97861.59;;;3.91;82.86
71126;BME280;58785;55.566;38.058;2023-03-12T02:02:19;97851.34;;;3.88;82.81
71126;BME280;58785;55.566;38.058;2023-03-12T02:04:55;97855.16;;;3.93;82.48
71126;BME280;58785;55.566;38.058;2023-03-12T02:07:23;97847.41;;;3.92;82.84
71126;BME280;58785;55.566;38.058;2023-03-12T02:09:49;97845.91;;;3.89;83.06
71126;BME280;58785;55.566;38.058;2023-03-12T02:12:16;97837.16;;;3.89;82.95
71126;BME280;58785;55.566;38.058;2023-03-12T02:14:42;97840.34;;;3.92;82.78
71126;BME280;58785;55.566;38.058;2023-03-12T02:17:09;97841.97;;;3.93;82.88
71126;BME280;58785;55.566;38.058;2023-03-12T02:19:42;97841.31;;;3.91;83.21
71126;BME280;58785;55.566;38.058;2023-03-12T02:22:11;97833.41;;;3.91;83.24
71126;BME280;58785;55.566;38.058;2023-03-12T02:24:51;97826.47;;;3.90;83.48
71126;BME280;58785;55.566;38.058;2023-03-12T02:27:18;97811.97;;;3.86;83.27
71126;BME280;58785;55.566;38.058;2023-03-12T02:29:45;97810.50;;;3.92;83.16
71126;BME280;58785;55.566;38.058;2023-03-12T02:32:19;97809.81;;;3.90;83.52
71126;BME280;58785;55.566;38.058;2023-03-12T02:34:45;97801.09;;;3.89;83.66
71126;BME280;58785;55.566;38.058;2023-03-12T02:37:13;97798.31;;;3.91;83.62
71126;BME280;58785;55.566;38.058;2023-03-12T02:39:40;97798.97;;;3.93;83.48
71126;BME280;58785;55.566;38.058;2023-03-12T02:42:07;97786.44;;;3.95;83.60
71126;BME280;58785;55.566;38.058;2023-03-12T02:44:35;97776.72;;;3.95;83.49
71126;BME280;58785;55.566;38.058;2023-03-12T02:47:03;97781.84;;;3.97;83.35
71126;BME280;58785;55.566;38.058;2023-03-12T02:49:32;97784.31;;;3.98;83.60
71126;BME280;58785;55.566;38.058;2023-03-12T02:51:58;97778.84;;;4.00;83.76
71126;BME280;58785;55.566;38.058;2023-03-12T02:54:24;97765.38;;;4.03;83.55
71126;BME280;58785;55.566;38.058;2023-03-12T02:56:50;97759.28;;;4.02;83.68
71126;BME280;58785;55.566;38.058;2023-03-12T02:59:18;97751.00;;;3.97;83.73
71126;BME280;58785;55.566;38.058;2023-03-12T03:01:45;97756.81;;;4.01;83.94
71126;BME280;58785;55.566;38.058;2023-03-12T03:04:11;97746.25;;;4.01;83.47
71126;BME280;58785;55.566;38.058;2023-03-12T03:06:39;97741.94;;;4.00;83.97
71126;BME280;58785;55.566;38.058;2023-03-12T03:09:06;97741.31;;;4.06;83.83
71126;BME280;58785;55.566;38.058;2023-03-12T03:11:32;97730.91;;;4.04;83.55
71126;BME280;58785;55.566;38.058;2023-03-12T03:13:58;97736.03;;;4.06;83.91
71126;BME280;58785;55.566;38.058;2023-03-12T03:16:23;97726.47;;;4.05;83.92
71126;BME280;58785;55.566;38.058;2023-03-12T03:18:49;97720.84;;;4.08;83.75
71126;BME280;58785;55.566;38.058;2023-03-12T03:21:16;97715.59;;;4.08;83.84
71126;BME280;58785;55.566;38.058;2023-03-12T03:23:43;97709.66;;;4.06;83.66
71126;BME280;58785;55.566;38.058;2023-03-12T03:26:09;97708.66;;;4.07;83.70
71126;BME280;58785;55.566;38.058;2023-03-12T03:28:36;97704.38;;;4.06;84.30
71126;BME280;58785;55.566;38.058;2023-03-12T03:31:02;97707.38;;;4.11;83.79
71126;BME280;58785;55.566;38.058;2023-03-12T03:33:29;97700.75;;;4.15;84.16
71126;BME280;58785;55.566;38.058;2023-03-12T03:35:56;97703.22;;;4.17;83.78
71126;BME280;58785;55.566;38.058;2023-03-12T03:38:25;97697.47;;;4.13;84.09
71126;BME280;58785;55.566;38.058;2023-03-12T03:40:52;97687.88;;;4.20;83.82
71126;BME280;58785;55.566;38.058;2023-03-12T03:43:18;97688.69;;;4.21;83.84
71126;BME280;58785;55.566;38.058;2023-03-12T03:45:43;97688.38;;;4.24;83.71
71126;BME280;58785;55.566;38.058;2023-03-12T03:48:12;97682.13;;;4.25;83.81
71126;BME280;58785;55.566;38.058;2023-03-12T03:50:38;97674.03;;;4.26;84.15
71126;BME280;58785;55.566;38.058;2023-03-12T03:53:05;97667.75;;;4.27;84.06
71126;BME280;58785;55.566;38.058;2023-03-12T03:55:35;97659.50;;;4.30;84.18
71126;BME280;58785;55.566;38.058;2023-03-12T03:58:01;97646.31;;;4.30;83.69
71126;BME280;58785;55.566;38.058;2023-03-12T04:00:27;97655.22;;;4.38;83.95
71126;BME280;58785;55.566;38.058;2023-03-12T04:02:53;97645.81;;;4.35;83.80
71126;BME280;58785;55.566;38.058;2023-03-12T04:05:20;97641.19;;;4.37;83.88
71126;BME280;58785;55.566;38.058;2023-03-12T04:07:46;97634.44;;;4.35;83.66
71126;BME280;58785;55.566;38.058;2023-03-12T04:10:12;97632.13;;;4.40;84.08
71126;BME280;58785;55.566;38.058;2023-03-12T04:12:38;97639.53;;;4.44;84.08
71126;BME280;58785;55.566;38.058;2023-03-12T04:15:04;97633.25;;;4.45;84.19
71126;BME280;58785;55.566;38.058;2023-03-12T04:17:29;97633.41;;;4.52;83.85
71126;BME280;58785;55.566;38.058;2023-03-12T04:19:55;97625.97;;;4.55;84.00
71126;BME280;58785;55.566;38.058;2023-03-12T04:22:21;97621.50;;;4.64;83.85
71126;BME280;58785;55.566;38.058;2023-03-12T04:24:47;97618.97;;;4.71;84.04
71126;BME280;58785;55.566;38.058;2023-03-12T04:27:12;97620.47;;;4.73;83.98
71126;BME280;58785;55.566;38.058;2023-03-12T04:29:38;97617.78;;;4.81;83.47
71126;BME280;58785;55.566;38.058;2023-03-12T04:32:05;97601.59;;;4.84;84.19
71126;BME280;58785;55.566;38.058;2023-03-12T04:34:30;97601.88;;;4.89;84.19
71126;BME280;58785;55.566;38.058;2023-03-12T04:36:56;97595.28;;;4.94;83.95
71126;BME280;58785;55.566;38.058;2023-03-12T04:39:22;97599.38;;;4.96;83.80
71126;BME280;58785;55.566;38.058;2023-03-12T04:41:47;97598.03;;;5.00;84.28
71126;BME280;58785;55.566;38.058;2023-03-12T04:44:13;97587.47;;;5.00;83.90
71126;BME280;58785;55.566;38.058;2023-03-12T04:46:39;97593.56;;;5.01;83.77
71126;BME280;58785;55.566;38.058;2023-03-12T04:49:05;97575.75;;;5.03;83.84
71126;BME280;58785;55.566;38.058;2023-03-12T04:51:30;97589.06;;;5.09;83.66
71126;BME280;58785;55.566;38.058;2023-03-12T04:53:57;97581.50;;;5.06;84.35
71126;BME280;58785;55.566;38.058;2023-03-12T04:56:23;97578.31;;;5.11;84.15
71126;BME280;58785;55.566;38.058;2023-03-12T04:58:50;97579.81;;;5.13;84.12
71126;BME280;58785;55.566;38.058;2023-03-12T05:01:26;97579.44;;;5.16;83.83
71126;BME280;58785;55.566;38.058;2023-03-12T05:03:52;97566.41;;;5.15;83.90
71126;BME280;58785;55.566;38.058;2023-03-12T05:06:18;97563.91;;;5.22;84.28
71126;BME280;58785;55.566;38.058;2023-03-12T05:08:45;97564.19;;;5.27;84.68
71126;BME280;58785;55.566;38.058;2023-03-12T05:11:11;97554.44;;;5.27;84.03
71126;BME280;58785;55.566;38.058;2023-03-12T05:13:36;97561.47;;;5.35;84.21
71126;BME280;58785;55.566;38.058;2023-03-12T05:16:02;97558.13;;;5.41;84.23
71126;BME280;58785;55.566;38.058;2023-03-12T05:18:28;97553.13;;;5.46;84.72
71126;BME280;58785;55.566;38.058;2023-03-12T05:21:06;97545.66;;;5.49;84.50
71126;BME280;58785;55.566;38.058;2023-03-12T05:23:32;97552.06;;;5.55;83.93
71126;BME280;58785;55.566;38.058;2023-03-12T05:25:58;97551.38;;;5.61;84.41
71126;BME280;58785;55.566;38.058;2023-03-12T05:28:24;97553.47;;;5.66;83.96
71126;BME280;58785;55.566;38.058;2023-03-12T05:30:57;97555.72;;;5.69;83.99
71126;BME280;58785;55.566;38.058;2023-03-12T05:33:23;97550.44;;;5.69;83.91
71126;BME280;58785;55.566;38.058;2023-03-12T05:35:50;97548.09;;;5.74;84.27
71126;BME280;58785;55.566;38.058;2023-03-12T05:38:16;97530.13;;;5.69;84.41
71126;BME280;58785;55.566;38.058;2023-03-12T05:40:42;97535.31;;;5.77;84.61
71126;BME280;58785;55.566;38.058;2023-03-12T05:43:08;97527.75;;;5.74;84.49
71126;BME280;58785;55.566;38.058;2023-03-12T05:45:33;97519.47;;;5.77;84.64
71126;BME280;58785;55.566;38.058;2023-03-12T05:47:59;97516.28;;;5.82;84.75
71126;BME280;58785;55.566;38.058;2023-03-12T05:50:25;97518.50;;;5.93;85.17
71126;BME280;58785;55.566;38.058;2023-03-12T05:52:51;97520.41;;;5.99;84.95
71126;BME280;58785;55.566;38.058;2023-03-12T05:55:17;97520.22;;;6.01;85.27
71126;BME280;58785;55.566;38.058;2023-03-12T05:57:43;97519.13;;;6.10;84.66
71126;BME280;58785;55.566;38.058;2023-03-12T06:00:11;97512.31;;;6.16;84.97
71126;BME280;58785;55.566;38.058;2023-03-12T06:02:37;97509.66;;;6.16;84.88
71126;BME280;58785;55.566;38.058;2023-03-12T06:05:03;97514.13;;;6.15;85.22
71126;BME280;58785;55.566;38.058;2023-03-12T06:07:29;97508.03;;;6.15;84.88
71126;BME280;58785;55.566;38.058;2023-03-12T06:09:54;97509.91;;;6.21;84.57
71126;BME280;58785;55.566;38.058;2023-03-12T06:12:20;97507.09;;;6.22;84.65
71126;BME280;58785;55.566;38.058;2023-03-12T06:14:46;97499.81;;;6.24;85.23
71126;BME280;58785;55.566;38.058;2023-03-12T06:17:11;97493.69;;;6.24;84.93
71126;BME280;58785;55.566;38.058;2023-03-12T06:19:37;97499.22;;;6.29;85.40
71126;BME280;58785;55.566;38.058;2023-03-12T06:22:03;97491.38;;;6.36;84.99
71126;BME280;58785;55.566;38.058;2023-03-12T06:24:29;97498.75;;;6.40;84.83
71126;BME280;58785;55.566;38.058;2023-03-12T06:26:55;97482.25;;;6.38;84.55
71126;BME280;58785;55.566;38.058;2023-03-12T06:29:20;97484.22;;;6.51;84.65
71126;BME280;58785;55.566;38.058;2023-03-12T06:31:46;97481.41;;;6.52;85.12
71126;BME280;58785;55.566;38.058;2023-03-12T06:34:13;97479.00;;;6.57;85.18
71126;BME280;58785;55.566;38.058;2023-03-12T06:36:41;97472.47;;;6.53;85.03
71126;BME280;58785;55.566;38.058;2023-03-12T06:39:06;97469.25;;;6.58;85.15
71126;BME280;58785;55.566;38.058;2023-03-12T06:41:33;97472.78;;;6.65;84.39
71126;BME280;58785;55.566;38.058;2023-03-12T06:43:59;97454.44;;;6.63;85.43
71126;BME280;58785;55.566;38.058;2023-03-12T06:46:28;97456.78;;;6.73;84.71
71126;BME280;58785;55.566;38.058;2023-03-12T06:48:54;97454.19;;;6.80;84.35
71126;BME280;58785;55.566;38.058;2023-03-12T06:51:19;97452.34;;;6.80;84.29
71126;BME280;58785;55.566;38.058;2023-03-12T06:53:45;97452.53;;;6.79;84.06
71126;BME280;58785;55.566;38.058;2023-03-12T06:56:12;97445.00;;;6.76;84.65
71126;BME280;58785;55.566;38.058;2023-03-12T06:58:37;97450.47;;;6.74;85.14
71126;BME280;58785;55.566;38.058;2023-03-12T07:01:04;97440.69;;;6.75;85.06
71126;BME280;58785;55.566;38.058;2023-03-12T07:03:29;97447.63;;;6.76;84.37
71126;BME280;58785;55.566;38.058;2023-03-12T07:05:56;97431.75;;;6.76;84.60
71126;BME280;58785;55.566;38.058;2023-03-12T07:08:22;97434.19;;;6.77;84.55
71126;BME280;58785;55.566;38.058;2023-03-12T07:10:48;97418.13;;;6.79;84.90
71126;BME280;58785;55.566;38.058;2023-03-12T07:13:14;97427.69;;;6.80;84.64
71126;BME280;58785;55.566;38.058;2023-03-12T07:15:40;97425.72;;;6.82;84.20
71126;BME280;58785;55.566;38.058;2023-03-12T07:18:10;97407.72;;;6.77;84.71
71126;BME280;58785;55.566;38.058;2023-03-12T07:20:38;97421.16;;;6.76;84.70
71126;BME280;58785;55.566;38.058;2023-03-12T07:23:04;97416.47;;;6.78;84.53
71126;BME280;58785;55.566;38.058;2023-03-12T07:25:30;97407.09;;;6.75;84.62
71126;BME280;58785;55.566;38.058;2023-03-12T07:27:55;97396.50;;;6.75;84.70
71126;BME280;58785;55.566;38.058;2023-03-12T07:30:21;97408.16;;;6.81;84.17
71126;BME280;58785;55.566;38.058;2023-03-12T07:32:47;97395.56;;;6.83;84.43
71126;BME280;58785;55.566;38.058;2023-03-12T07:35:13;97394.09;;;6.80;84.74
71126;BME280;58785;55.566;38.058;2023-03-12T07:37:38;97394.28;;;6.79;85.06
71126;BME280;58785;55.566;38.058;2023-03-12T07:40:04;97387.97;;;6.80;84.81
71126;BME280;58785;55.566;38.058;2023-03-12T07:42:34;97393.28;;;6.80;85.03
71126;BME280;58785;55.566;38.058;2023-03-12T07:45:00;97383.31;;;6.82;84.33
71126;BME280;58785;55.566;38.058;2023-03-12T07:47:26;97391.06;;;6.83;85.27
71126;BME280;58785;55.566;38.058;2023-03-12T07:49:51;97374.53;;;6.81;84.73
71126;BME280;58785;55.566;38.058;2023-03-12T07:52:18;97376.75;;;6.78;84.74
71126;BME280;58785;55.566;38.058;2023-03-12T07:54:44;97374.69;;;6.73;84.98
71126;BME280;58785;55.566;38.058;2023-03-12T07:57:10;97389.31;;;6.69;85.29
71126;BME280;58785;55.566;38.058;2023-03-12T07:59:35;97380.13;;;6.65;85.50
71126;BME280;58785;55.566;38.058;2023-03-12T08:02:01;97372.16;;;6.65;84.92
71126;BME280;58785;55.566;38.058;2023-03-12T08:04:26;97368.50;;;6.66;84.86
71126;BME280;58785;55.566;38.058;2023-03-12T08:06:52;97359.13;;;6.63;85.39
71126;BME280;58785;55.566;38.058;2023-03-12T08:09:18;97365.28;;;6.71;85.23
71126;BME280;58785;55.566;38.058;2023-03-12T08:11:43;97363.72;;;6.76;85.04
71126;BME280;58785;55.566;38.058;2023-03-12T08:14:09;97349.25;;;6.79;85.13
71126;BME280;58785;55.566;38.058;2023-03-12T08:16:34;97337.66;;;6.80;84.54
71126;BME280;58785;55.566;38.058;2023-03-12T08:19:00;97344.22;;;6.84;85.06
71126;BME280;58785;55.566;38.058;2023-03-12T08:21:26;97330.38;;;6.88;84.56
71126;BME280;58785;55.566;38.058;2023-03-12T08:23:51;97333.09;;;6.95;84.70
71126;BME280;58785;55.566;38.058;2023-03-12T08:26:17;97326.25;;;7.07;84.82
71126;BME280;58785;55.566;38.058;2023-03-12T08:28:42;97322.19;;;7.11;84.10
71126;BME280;58785;55.566;38.058;2023-03-12T08:31:08;97318.34;;;7.14;83.72
71126;BME280;58785;55.566;38.058;2023-03-12T08:33:35;97306.34;;;7.18;83.72
71126;BME280;58785;55.566;38.058;2023-03-12T08:36:00;97304.56;;;7.25;83.60
71126;BME280;58785;55.566;38.058;2023-03-12T08:38:26;97307.41;;;7.30;83.60
71126;BME280;58785;55.566;38.058;2023-03-12T08:40:59;97301.53;;;7.35;83.44
71126;BME280;58785;55.566;38.058;2023-03-12T08:43:26;97288.50;;;7.40;84.03
71126;BME280;58785;55.566;38.058;2023-03-12T08:45:57;97276.94;;;7.47;83.03
71126;BME280;58785;55.566;38.058;2023-03-12T08:48:23;97273.06;;;7.50;82.88
71126;BME280;58785;55.566;38.058;2023-03-12T08:50:49;97267.59;;;7.52;83.50
71126;BME280;58785;55.566;38.058;2023-03-12T08:53:15;97269.38;;;7.51;82.86
71126;BME280;58785;55.566;38.058;2023-03-12T08:55:42;97250.81;;;7.51;83.19
71126;BME280;58785;55.566;38.058;2023-03-12T08:58:08;97255.31;;;7.44;82.61
71126;BME280;58785;55.566;38.058;2023-03-12T09:00:34;97265.25;;;7.35;83.50
71126;BME280;58785;55.566;38.058;2023-03-12T09:02:59;97256.44;;;7.28;83.80
71126;BME280;58785;55.566;38.058;2023-03-12T09:05:25;97250.72;;;7.25;83.73
71126;BME280;58785;55.566;38.058;2023-03-12T09:07:55;97245.63;;;7.30;83.17
71126;BME280;58785;55.566;38.058;2023-03-12T09:10:21;97227.09;;;7.23;83.32
71126;BME280;58785;55.566;38.058;2023-03-12T09:12:47;97229.97;;;7.35;83.67
71126;BME280;58785;55.566;38.058;2023-03-12T09:15:13;97224.69;;;7.35;83.11
71126;BME280;58785;55.566;38.058;2023-03-12T09:17:39;97221.78;;;7.30;83.19
71126;BME280;58785;55.566;38.058;2023-03-12T09:20:05;97220.34;;;7.27;83.19
71126;BME280;58785;55.566;38.058;2023-03-12T09:22:33;97222.16;;;7.20;83.22
71126;BME280;58785;55.566;38.058;2023-03-12T09:25:02;97223.16;;;7.12;82.89
71126;BME280;58785;55.566;38.058;2023-03-12T09:27:35;97225.53;;;7.01;83.62
71126;BME280;58785;55.566;38.058;2023-03-12T09:30:00;97219.53;;;6.85;83.27
71126;BME280;58785;55.566;38.058;2023-03-12T09:32:26;97219.94;;;6.82;82.89
71126;BME280;58785;55.566;38.058;2023-03-12T09:34:52;97194.63;;;6.73;83.51
71126;BME280;58785;55.566;38.058;2023-03-12T09:37:18;97205.50;;;6.85;83.09
71126;BME280;58785;55.566;38.058;2023-03-12T09:39:44;97191.19;;;6.79;83.56
71126;BME280;58785;55.566;38.058;2023-03-12T09:42:22;97189.34;;;6.73;83.26
71126;BME280;58785;55.566;38.058;2023-03-12T09:44:50;97197.06;;;6.75;83.67
71126;BME280;58785;55.566;38.058;2023-03-12T09:49:48;97183.44;;;6.78;83.09
71126;BME280;58785;55.566;38.058;2023-03-12T09:52:54;97173.72;;;6.85;83.62
71126;BME280;58785;55.566;38.058;2023-03-12T09:55:22;97174.56;;;6.92;83.10
71126;BME280;58785;55.566;38.058;2023-03-12T09:57:50;97165.81;;;6.98;83.08
71126;BME280;58785;55.566;38.058;2023-03-12T10:00:21;97163.41;;;7.03;82.86
71126;BME280;58785;55.566;38.058;2023-03-12T10:08:36;97152.00;;;7.09;83.42
71126;BME280;58785;55.566;38.058;2023-03-12T10:24:43;97123.28;;;7.13;83.38
71126;BME280;58785;55.566;38.058;2023-03-12T10:27:15;97113.69;;;7.05;83.02
71126;BME280;58785;55.566;38.058;2023-03-12T10:29:43;97107.56;;;7.11;83.64
71126;BME280;58785;55.566;38.058;2023-03-12T10:32:29;97107.81;;;7.16;83.07
71126;BME280;58785;55.566;38.058;2023-03-12T10:35:06;97101.28;;;7.12;83.59
71126;BME280;58785;55.566;38.058;2023-03-12T10:37:51;97090.84;;;7.11;82.62
71126;BME280;58785;55.566;38.058;2023-03-12T10:40:24;97098.44;;;7.14;83.17
71126;BME280;58785;55.566;38.058;2023-03-12T10:42:50;97077.19;;;7.07;83.03
71126;BME280;58785;55.566;38.058;2023-03-12T10:47:54;97083.13;;;7.09;83.41
71126;BME280;58785;55.566;38.058;2023-03-12T10:50:26;97073.13;;;7.11;83.32
71126;BME280;58785;55.566;38.058;2023-03-12T10:53:31;97079.06;;;7.13;83.13
71126;BME280;58785;55.566;38.058;2023-03-12T10:56:18;97079.06;;;7.13;82.69
71126;BME280;58785;55.566;38.058;2023-03-12T10:58:47;97072.75;;;7.14;82.99
71126;BME280;58785;55.566;38.058;2023-03-12T11:03:39;97066.03;;;7.38;82.63
71126;BME280;58785;55.566;38.058;2023-03-12T11:06:06;97057.28;;;7.44;82.37
71126;BME280;58785;55.566;38.058;2023-03-12T11:08:36;97059.94;;;7.51;82.31
71126;BME280;58785;55.566;38.058;2023-03-12T11:11:03;97052.41;;;7.55;81.95
71126;BME280;58785;55.566;38.058;2023-03-12T11:13:40;97052.59;;;7.60;81.85
71126;BME280;58785;55.566;38.058;2023-03-12T11:21:22;97039.78;;;7.63;82.27
71126;BME280;58785;55.566;38.058;2023-03-12T11:26:32;97038.31;;;7.61;82.11
71126;BME280;58785;55.566;38.058;2023-03-12T11:34:44;97013.88;;;7.52;82.23
71126;BME280;58785;55.566;38.058;2023-03-12T11:37:30;97015.09;;;7.56;81.82
71126;BME280;58785;55.566;38.058;2023-03-12T11:40:12;97027.31;;;7.64;82.15
71126;BME280;58785;55.566;38.058;2023-03-12T11:53:47;97024.47;;;7.45;82.08
71126;BME280;58785;55.566;38.058;2023-03-12T11:56:33;97013.88;;;7.45;82.30
71126;BME280;58785;55.566;38.058;2023-03-12T12:04:33;97018.94;;;7.73;82.10
71126;BME280;58785;55.566;38.058;2023-03-12T12:08:05;97011.59;;;7.82;81.39
71126;BME280;58785;55.566;38.058;2023-03-12T12:10:29;97009.13;;;7.87;80.67
71126;BME280;58785;55.566;38.058;2023-03-12T12:15:59;97007.94;;;7.76;81.22
71126;BME280;58785;55.566;38.058;2023-03-12T12:21:31;97005.06;;;7.71;81.39
71126;BME280;58785;55.566;38.058;2023-03-12T12:38:01;97002.44;;;7.65;81.91
71126;BME280;58785;55.566;38.058;2023-03-12T12:40:35;96995.50;;;7.64;81.87
71126;BME280;58785;55.566;38.058;2023-03-12T12:45:40;97002.44;;;7.45;81.59
71126;BME280;58785;55.566;38.058;2023-03-12T12:51:00;97053.56;;;7.06;82.14
71126;BME280;58785;55.566;38.058;2023-03-12T13:01:18;97096.53;;;6.12;81.84
71126;BME280;58785;55.566;38.058;2023-03-12T13:03:45;97098.75;;;5.87;81.90
71126;BME280;58785;55.566;38.058;2023-03-12T13:06:11;97114.66;;;5.66;81.33
71126;BME280;58785;55.566;38.058;2023-03-12T13:13:37;97138.91;;;4.61;81.03
71126;BME280;58785;55.566;38.058;2023-03-12T13:16:35;97161.53;;;4.41;81.24
71126;BME280;58785;55.566;38.058;2023-03-12T13:19:07;97177.81;;;4.29;81.38
71126;BME280;58785;55.566;38.058;2023-03-12T13:24:48;97206.28;;;3.96;81.09
71126;BME280;58785;55.566;38.058;2023-03-12T13:27:21;97209.22;;;3.79;81.12
71126;BME280;58785;55.566;38.058;2023-03-12T13:29:50;97197.47;;;3.66;81.18
71126;BME280;58785;55.566;38.058;2023-03-12T13:34:59;97216.50;;;3.54;81.04
71126;BME280;58785;55.566;38.058;2023-03-12T13:43:08;97221.84;;;3.37;81.37
71126;BME280;58785;55.566;38.058;2023-03-12T13:46:00;97230.94;;;3.35;81.16
71126;BME280;58785;55.566;38.058;2023-03-12T13:48:29;97227.00;;;3.31;81.24
71126;BME280;58785;55.566;38.058;2023-03-12T13:51:07;97228.19;;;3.20;80.87
71126;BME280;58785;55.566;38.058;2023-03-12T13:53:36;97248.78;;;3.16;80.76
71126;BME280;58785;55.566;38.058;2023-03-12T13:56:11;97259.16;;;3.10;81.13
71126;BME280;58785;55.566;38.058;2023-03-12T13:58:53;97262.50;;;3.04;81.03
71126;BME280;58785;55.566;38.058;2023-03-12T14:01:23;97266.00;;;2.88;80.46
71126;BME280;58785;55.566;38.058;2023-03-12T14:03:58;97285.94;;;2.74;80.73
71126;BME280;58785;55.566;38.058;2023-03-12T14:06:26;97279.06;;;2.57;80.82
71126;BME280;58785;55.566;38.058;2023-03-12T14:12:14;97304.22;;;2.35;81.50
71126;BME280;58785;55.566;38.058;2023-03-12T14:15:00;97319.34;;;2.33;80.94
71126;BME280;58785;55.566;38.058;2023-03-12T14:17:31;97325.25;;;2.27;81.09
71126;BME280;58785;55.566;38.058;2023-03-12T14:20:24;97330.19;;;2.14;81.15
71126;BME280;58785;55.566;38.058;2023-03-12T14:22:54;97341.84;;;2.03;80.78
71126;BME280;58785;55.566;38.058;2023-03-12T14:25:33;97354.28;;;1.85;81.30
71126;BME280;58785;55.566;38.058;2023-03-12T14:28:01;97370.47;;;1.64;81.65
71126;BME280;58785;55.566;38.058;2023-03-12T14:33:17;97392.94;;;1.24;81.71
71126;BME280;58785;55.566;38.058;2023-03-12T14:35:57;97403.03;;;1.11;81.97
71126;BME280;58785;55.566;38.058;2023-03-12T14:38:33;97400.13;;;0.96;81.71
71126;BME280;58785;55.566;38.058;2023-03-12T14:41:20;97422.59;;;0.91;81.88
71126;BME280;58785;55.566;38.058;2023-03-12T14:43:51;97421.88;;;0.89;81.82
71126;BME280;58785;55.566;38.058;2023-03-12T14:46:23;97434.56;;;0.93;81.48
71126;BME280;58785;55.566;38.058;2023-03-12T14:48:51;97427.44;;;0.85;81.33
71126;BME280;58785;55.566;38.058;2023-03-12T14:51:21;97440.50;;;0.77;81.40
71126;BME280;58785;55.566;38.058;2023-03-12T14:53:48;97435.50;;;0.66;81.30
71126;BME280;58785;55.566;38.058;2023-03-12T14:58:57;97478.34;;;0.57;80.99
71126;BME280;58785;55.566;38.058;2023-03-12T15:01:26;97473.75;;;0.59;81.47
71126;BME280;58785;55.566;38.058;2023-03-12T15:03:56;97486.59;;;0.62;81.22
71126;BME280;58785;55.566;38.058;2023-03-12T15:06:27;97494.47;;;0.62;81.24